createdAt,value
2019-04-21T00:00:39.715Z,9.90
2019-04-21T00:03:19.304Z,14.93
2019-04-21T00:06:03.045Z,12.93
2019-04-21T00:11:09.486Z,5.97
2019-04-21T00:13:27.969Z,7.35
2019-04-21T00:15:53.909Z,13.33
2019-04-21T00:18:48.503Z,8.83
2019-04-21T00:21:22.266Z,6.87
2019-04-21T00:24:01.288Z,8.80
2019-04-21T00:26:33.319Z,7.87
2019-04-21T00:29:09.404Z,7.90
2019-04-21T00:31:33.930Z,5.47
2019-04-21T00:33:49.779Z,7.20
2019-04-21T00:36:26.011Z,7.53
2019-04-21T00:39:20.938Z,13.63
2019-04-21T00:41:43.791Z,12.30
2019-04-21T00:44:07.414Z,15.50
2019-04-21T00:46:42.909Z,14.03
2019-04-21T00:49:10.444Z,5.23
2019-04-21T00:52:04.859Z,7.97
2019-04-21T00:54:32.802Z,9.87
2019-04-21T00:57:05.378Z,9.30
2019-04-21T00:59:31.867Z,7.80
2019-04-21T01:01:55.428Z,17.50
2019-04-21T01:04:33.254Z,9.17
2019-04-21T01:07:03.582Z,9.40
2019-04-21T01:09:27.633Z,10.23
2019-04-21T01:12:03.605Z,5.77
2019-04-21T01:14:40.712Z,12.27
2019-04-21T01:17:11.323Z,8.07
2019-04-21T01:19:32.953Z,8.85
2019-04-21T01:21:48.087Z,13.67
2019-04-21T01:24:26.196Z,7.13
2019-04-21T01:27:01.619Z,9.53
2019-04-21T01:29:41.483Z,8.83
2019-04-21T01:32:19.074Z,10.80
2019-04-21T01:34:39.138Z,8.57
2019-04-21T01:37:10.460Z,8.50
2019-04-21T01:39:51.511Z,11.10
2019-04-21T01:42:19.106Z,11.97
2019-04-21T01:44:46.151Z,9.67
2019-04-21T01:47:10.264Z,10.47
2019-04-21T01:49:41.438Z,11.60
2019-04-21T01:52:24.691Z,9.37
2019-04-21T01:55:00.377Z,6.33
2019-04-21T01:57:55.354Z,9.73
2019-04-21T02:00:30.512Z,19.67
2019-04-21T02:03:10.426Z,13.68
2019-04-21T02:05:37.677Z,16.70
2019-04-21T02:08:02.556Z,8.10
2019-04-21T02:10:40.058Z,8.80
2019-04-21T02:13:03.200Z,11.20
2019-04-21T02:18:07.041Z,10.80
2019-04-21T02:20:30.426Z,13.70
2019-04-21T02:25:39.712Z,13.77
2019-04-21T02:28:14.825Z,15.32
2019-04-21T02:30:54.986Z,10.80
2019-04-21T02:36:00.570Z,11.40
2019-04-21T02:38:30.731Z,11.97
2019-04-21T02:40:51.386Z,12.57
2019-04-21T02:43:25.024Z,10.90
2019-04-21T02:51:01.596Z,9.70
2019-04-21T02:58:51.182Z,16.07
2019-04-21T03:01:50.501Z,10.33
2019-04-21T03:04:30.316Z,12.13
2019-04-21T03:09:32.212Z,11.28
2019-04-21T03:14:50.253Z,12.70
2019-04-21T03:17:09.043Z,14.97
2019-04-21T03:19:45.218Z,20.53
2019-04-21T03:22:12.984Z,15.13
2019-04-21T03:25:00.580Z,14.33
2019-04-21T03:27:20.981Z,13.17
2019-04-21T03:29:48.262Z,8.70
2019-04-21T03:35:19.284Z,13.90
2019-04-21T03:37:16.643Z,13.87
2019-04-21T03:42:33.817Z,14.23
2019-04-21T03:44:45.306Z,11.70
2019-04-21T03:47:24.911Z,8.73
2019-04-21T03:49:54.305Z,13.13
2019-04-21T03:52:37.073Z,15.75
2019-04-21T03:55:33.391Z,16.40
2019-04-21T03:58:00.330Z,12.97
2019-04-21T04:00:27.624Z,14.53
2019-04-21T04:09:06.424Z,11.40
2019-04-21T04:11:33.731Z,9.77
2019-04-21T04:14:18.502Z,16.07
2019-04-21T04:19:01.204Z,28.20
2019-04-21T04:24:13.019Z,13.87
2019-04-21T04:26:31.551Z,12.23
2019-04-21T04:29:08.840Z,13.40
2019-04-21T04:31:41.763Z,18.15
2019-04-21T04:34:10.448Z,15.87
2019-04-21T04:36:50.284Z,14.20
2019-04-21T04:39:36.617Z,14.53
2019-04-21T04:42:12.659Z,18.83
2019-04-21T04:44:46.331Z,13.93
2019-04-21T04:47:12.755Z,12.93
2019-04-21T04:57:16.135Z,10.17
2019-04-21T04:59:42.609Z,12.82
2019-04-21T05:02:19.820Z,12.37
2019-04-21T05:05:09.127Z,9.37
2019-04-21T05:07:33.775Z,11.10
2019-04-21T05:09:52.222Z,10.07
2019-04-21T05:12:15.895Z,8.10
2019-04-21T05:20:05.846Z,13.57
2019-04-21T05:24:45.074Z,9.00
2019-04-21T05:27:47.053Z,12.93
2019-04-21T05:30:36.919Z,14.60
2019-04-21T05:33:30.441Z,10.43
2019-04-21T05:35:57.256Z,10.30
2019-04-21T05:38:37.713Z,11.90
2019-04-21T05:41:02.171Z,15.93
2019-04-21T05:43:42.041Z,7.17
2019-04-21T05:46:14.206Z,10.07
2019-04-21T05:48:52.535Z,11.87
2019-04-21T05:51:20.515Z,15.17
2019-04-21T05:53:56.141Z,8.20
2019-04-21T05:56:23.000Z,10.30
2019-04-21T05:58:57.990Z,11.60
2019-04-21T06:01:35.823Z,10.10
2019-04-21T06:06:34.083Z,9.67
2019-04-21T06:08:59.468Z,8.43
2019-04-21T06:11:30.920Z,9.73
2019-04-21T06:14:21.745Z,8.77
2019-04-21T06:16:36.347Z,8.67
2019-04-21T06:19:05.223Z,7.07
2019-04-21T06:21:33.161Z,10.67
2019-04-21T06:24:03.998Z,8.30
2019-04-21T06:26:53.701Z,16.23
2019-04-21T06:29:08.642Z,8.80
2019-04-21T06:34:16.654Z,12.65
2019-04-21T06:37:01.642Z,11.10
2019-04-21T06:39:30.738Z,15.93
2019-04-21T06:42:05.307Z,11.93
2019-04-21T06:44:33.092Z,10.77
2019-04-21T06:47:06.288Z,14.47
2019-04-21T06:49:31.412Z,7.60
2019-04-21T06:52:17.860Z,9.90
2019-04-21T06:54:44.690Z,11.27
2019-04-21T06:57:10.800Z,8.70
2019-04-21T06:59:38.974Z,10.53
2019-04-21T07:02:31.851Z,7.80
2019-04-21T07:04:44.501Z,8.37
2019-04-21T07:07:14.117Z,8.10
2019-04-21T07:09:51.178Z,8.13
2019-04-21T07:12:12.598Z,7.87
2019-04-21T07:14:48.236Z,8.10
2019-04-21T07:17:26.883Z,9.23
2019-04-21T07:19:55.859Z,17.60
2019-04-21T07:22:24.575Z,10.53
2019-04-21T07:24:51.816Z,8.83
2019-04-21T07:27:22.219Z,12.57
2019-04-21T07:29:58.533Z,9.00
2019-04-21T07:32:28.583Z,10.80
2019-04-21T07:35:01.505Z,10.50
2019-04-21T07:37:31.716Z,16.97
2019-04-21T07:39:54.814Z,9.18
2019-04-21T07:42:24.328Z,7.80
2019-04-21T07:44:53.468Z,8.03
2019-04-21T07:47:39.530Z,7.90
2019-04-21T07:50:15.704Z,7.93
2019-04-21T07:53:03.669Z,10.80
2019-04-21T07:57:52.689Z,10.70
2019-04-21T08:03:05.228Z,11.60
2019-04-21T08:05:35.286Z,15.87
2019-04-21T08:07:59.083Z,8.57
2019-04-21T08:10:33.547Z,8.33
2019-04-21T08:13:14.671Z,9.30
2019-04-21T08:15:40.290Z,8.80
2019-04-21T08:18:16.644Z,7.93
2019-04-21T08:20:41.889Z,9.77
2019-04-21T08:23:13.021Z,11.73
2019-04-21T08:25:55.726Z,11.37
2019-04-21T08:28:15.259Z,6.80
2019-04-21T08:30:43.155Z,9.63
2019-04-21T08:33:25.053Z,9.10
2019-04-21T08:38:22.774Z,8.30
2019-04-21T08:40:49.253Z,9.47
2019-04-21T08:43:27.790Z,11.13
2019-04-21T08:45:57.111Z,9.73
2019-04-21T08:48:23.974Z,8.30
2019-04-21T08:51:05.553Z,6.30
2019-04-21T08:53:47.675Z,7.63
2019-04-21T08:56:18.517Z,9.50
2019-04-21T08:59:05.454Z,13.63
2019-04-21T09:01:43.053Z,8.40
2019-04-21T09:04:13.292Z,13.80
2019-04-21T09:07:04.558Z,6.80
2019-04-21T09:09:18.849Z,11.57
2019-04-21T09:11:50.518Z,8.60
2019-04-21T09:14:21.206Z,6.93
2019-04-21T09:16:46.018Z,6.70
2019-04-21T09:19:35.456Z,7.63
2019-04-21T09:24:22.026Z,7.40
2019-04-21T09:26:52.716Z,7.43
2019-04-21T09:29:15.949Z,6.33
2019-04-21T09:31:41.093Z,4.77
2019-04-21T09:34:10.105Z,5.67
2019-04-21T09:36:46.695Z,5.90
2019-04-21T09:39:16.824Z,7.83
2019-04-21T09:41:43.140Z,6.87
2019-04-21T09:44:19.939Z,6.43
2019-04-21T09:46:50.569Z,6.00
2019-04-21T09:49:20.619Z,5.27
2019-04-21T09:51:45.975Z,11.00
2019-04-21T09:54:22.876Z,4.77
2019-04-21T09:56:54.308Z,5.47
2019-04-21T09:59:28.058Z,5.17
2019-04-21T10:01:59.244Z,8.83
2019-04-21T10:04:23.196Z,6.50
2019-04-21T10:06:52.740Z,5.23
2019-04-21T10:09:24.289Z,9.03
2019-04-21T10:11:54.862Z,11.30
2019-04-21T10:14:24.445Z,5.40
2019-04-21T10:17:13.286Z,10.90
2019-04-21T10:19:43.843Z,5.50
2019-04-21T10:22:16.923Z,8.60
2019-04-21T10:24:46.721Z,6.67
2019-04-21T10:27:17.169Z,6.77
2019-04-21T10:29:47.197Z,5.23
2019-04-21T10:32:20.154Z,8.80
2019-04-21T10:34:49.613Z,5.37
2019-04-21T10:37:19.338Z,5.70
2019-04-21T10:39:49.628Z,9.15
2019-04-21T10:42:19.518Z,15.43
2019-04-21T10:44:49.408Z,4.83
2019-04-21T10:47:18.981Z,4.60
2019-04-21T10:49:48.680Z,4.83
2019-04-21T10:52:22.949Z,4.90
2019-04-21T10:55:11.229Z,6.63
2019-04-21T10:57:26.496Z,7.20
2019-04-21T10:59:58.227Z,7.40
2019-04-21T11:02:46.494Z,6.60
2019-04-21T11:05:16.775Z,5.13
2019-04-21T11:08:07.647Z,13.57
2019-04-21T11:10:23.145Z,10.10
2019-04-21T11:12:52.706Z,4.58
2019-04-21T11:15:23.232Z,4.90
2019-04-21T11:17:55.455Z,7.00
2019-04-21T11:20:24.750Z,6.17
2019-04-21T11:22:55.428Z,7.90
2019-04-21T11:25:26.255Z,5.53
2019-04-21T11:27:55.657Z,5.23
2019-04-21T11:30:25.594Z,6.37
2019-04-21T11:32:55.330Z,6.40
2019-04-21T11:35:25.502Z,8.00
2019-04-21T11:38:04.647Z,5.47
2019-04-21T11:40:27.698Z,5.37
2019-04-21T11:42:58.113Z,10.87
2019-04-21T11:45:28.737Z,4.77
2019-04-21T11:48:24.266Z,4.17
2019-04-21T11:50:55.084Z,11.00
2019-04-21T11:53:25.181Z,6.23
2019-04-21T11:55:55.540Z,4.43
2019-04-21T11:58:26.228Z,4.63
2019-04-21T12:00:58.259Z,4.30
2019-04-21T12:03:27.722Z,3.90
2019-04-21T12:05:57.356Z,4.00
2019-04-21T12:08:33.061Z,8.23
2019-04-21T12:10:57.958Z,4.42
2019-04-21T12:13:27.910Z,4.85
2019-04-21T12:15:59.067Z,3.15
2019-04-21T12:18:30.155Z,3.40
2019-04-21T12:21:01.200Z,3.60
2019-04-21T12:23:30.780Z,4.60
2019-04-21T12:26:01.250Z,6.05
2019-04-21T12:28:32.298Z,3.62
2019-04-21T12:31:03.232Z,2.87
2019-04-21T12:33:56.057Z,3.80
2019-04-21T12:36:25.702Z,2.52
2019-04-21T12:38:58.232Z,2.92
2019-04-21T12:41:26.677Z,2.45
2019-04-21T12:43:56.972Z,2.65
2019-04-21T12:46:27.686Z,2.47
2019-04-21T12:48:58.012Z,2.05
2019-04-21T12:51:28.040Z,2.67
2019-04-21T12:53:57.548Z,1.87
2019-04-21T12:56:27.581Z,1.92
2019-04-21T12:58:57.666Z,2.22
2019-04-21T13:01:27.415Z,2.00
2019-04-21T13:03:57.818Z,3.70
2019-04-21T13:06:27.726Z,1.83
2019-04-21T13:09:03.353Z,2.08
2019-04-21T13:11:28.941Z,5.35
2019-04-21T13:13:59.769Z,6.15
2019-04-21T13:16:29.558Z,3.87
2019-04-21T13:18:59.555Z,2.15
2019-04-21T13:21:29.914Z,4.53
2019-04-21T13:24:00.921Z,2.58
2019-04-21T13:26:42.186Z,2.10
2019-04-21T13:29:02.682Z,4.03
2019-04-21T13:31:32.260Z,2.40
2019-04-21T13:34:02.156Z,2.17
2019-04-21T13:36:31.811Z,3.00
2019-04-21T13:39:38.135Z,2.65
2019-04-21T13:41:50.584Z,2.37
2019-04-21T13:44:15.649Z,1.87
2019-04-21T13:46:47.129Z,3.55
2019-04-21T13:49:17.321Z,2.00
2019-04-21T13:51:48.027Z,1.75
2019-04-21T13:54:18.009Z,2.00
2019-04-21T13:56:47.582Z,1.67
2019-04-21T13:59:18.246Z,2.03
2019-04-21T14:01:49.778Z,2.55
2019-04-21T14:04:19.870Z,1.90
2019-04-21T14:06:50.098Z,2.00
2019-04-21T14:09:19.988Z,2.47
2019-04-21T14:11:52.138Z,2.40
2019-04-21T14:14:20.718Z,1.85
2019-04-21T14:16:50.184Z,2.00
2019-04-21T14:19:19.817Z,2.10
2019-04-21T14:21:53.091Z,4.30
2019-04-21T14:24:22.904Z,5.12
2019-04-21T14:26:56.271Z,1.32
2019-04-21T14:29:25.879Z,3.27
2019-04-21T14:31:56.415Z,1.60
2019-04-21T14:34:30.120Z,1.87
2019-04-21T14:36:59.782Z,2.67
2019-04-21T14:39:30.362Z,1.93
2019-04-21T14:42:04.392Z,2.50
2019-04-21T14:44:33.225Z,2.98
2019-04-21T14:47:35.082Z,3.50
2019-04-21T14:50:17.582Z,2.20
2019-04-21T14:52:48.874Z,1.77
2019-04-21T14:55:24.894Z,2.40
2019-04-21T14:57:54.902Z,3.10
2019-04-21T15:00:27.156Z,2.50
2019-04-21T15:03:01.436Z,2.37
2019-04-21T15:05:31.342Z,2.70
2019-04-21T15:08:03.712Z,2.22
2019-04-21T15:10:34.010Z,5.47
2019-04-21T15:13:05.701Z,1.77
2019-04-21T15:15:36.093Z,1.52
2019-04-21T15:18:05.758Z,2.15
2019-04-21T15:20:36.275Z,1.70
2019-04-21T15:23:06.246Z,2.12
2019-04-21T15:25:36.269Z,2.90
2019-04-21T15:28:07.382Z,2.55
2019-04-21T15:30:36.923Z,2.30
2019-04-21T15:33:06.529Z,1.70
2019-04-21T15:35:39.066Z,2.27
2019-04-21T15:38:11.865Z,2.05
2019-04-21T15:40:48.494Z,2.65
2019-04-21T15:43:12.650Z,1.98
2019-04-21T15:45:42.494Z,2.80
2019-04-21T15:48:12.386Z,1.92
2019-04-21T15:50:42.019Z,2.02
2019-04-21T15:53:13.983Z,1.95
2019-04-21T15:56:13.138Z,2.15
2019-04-21T15:58:56.682Z,4.22
2019-04-21T16:01:37.143Z,4.15
2019-04-21T16:04:10.693Z,2.30
2019-04-21T16:06:41.530Z,2.55
2019-04-21T16:09:16.568Z,1.72
2019-04-21T16:11:46.110Z,2.40
2019-04-21T16:14:16.703Z,2.95
2019-04-21T16:16:47.297Z,2.42
2019-04-21T16:19:18.666Z,2.42
2019-04-21T16:21:50.543Z,2.90
2019-04-21T16:24:18.941Z,2.12
2019-04-21T16:26:48.765Z,2.50
2019-04-21T16:29:18.383Z,3.65
2019-04-21T16:31:48.967Z,2.80
2019-04-21T16:34:19.843Z,2.25
2019-04-21T16:36:52.009Z,4.00
2019-04-21T16:39:21.502Z,4.75
2019-04-21T16:41:51.942Z,7.80
2019-04-21T16:44:22.987Z,2.92
2019-04-21T16:46:53.665Z,2.58
2019-04-21T16:49:23.222Z,2.87
2019-04-21T16:52:12.017Z,6.00
2019-04-21T16:54:47.743Z,2.75
2019-04-21T16:57:28.041Z,2.95
2019-04-21T17:00:04.422Z,6.85
2019-04-21T17:02:36.711Z,5.65
2019-04-21T17:05:08.129Z,10.28
2019-04-21T17:07:40.980Z,2.55
2019-04-21T17:10:10.739Z,3.30
2019-04-21T17:12:41.852Z,3.60
2019-04-21T17:15:29.368Z,6.83
2019-04-21T17:18:05.947Z,3.00
2019-04-21T17:20:31.014Z,3.20
2019-04-21T17:22:49.495Z,4.77
2019-04-21T17:25:21.516Z,4.67
2019-04-21T17:27:51.342Z,3.67
2019-04-21T17:30:22.359Z,5.73
2019-04-21T17:32:53.683Z,3.10
2019-04-21T17:35:23.074Z,5.15
2019-04-21T17:37:52.411Z,4.30
2019-04-21T17:40:23.992Z,3.97
2019-04-21T17:43:01.325Z,3.67
2019-04-21T17:45:24.689Z,4.00
2019-04-21T17:47:59.836Z,5.85
2019-04-21T17:50:56.446Z,4.77
2019-04-21T17:53:45.278Z,9.13
2019-04-21T17:56:29.825Z,3.80
2019-04-21T17:59:04.423Z,7.70
2019-04-21T18:01:40.040Z,4.10
2019-04-21T18:04:11.067Z,4.87
2019-04-21T18:06:39.757Z,5.03
2019-04-21T18:09:24.322Z,12.57
2019-04-21T18:11:49.327Z,6.47
2019-04-21T18:13:57.474Z,3.80
2019-04-21T18:16:35.451Z,3.97
2019-04-21T18:18:59.152Z,3.73
2019-04-21T18:21:40.181Z,6.50
2019-04-21T18:24:14.698Z,3.40
2019-04-21T18:26:46.793Z,3.95
2019-04-21T18:29:09.555Z,13.23
2019-04-21T18:31:45.219Z,3.70
2019-04-21T18:34:32.052Z,11.37
2019-04-21T18:37:05.536Z,7.63
2019-04-21T18:39:52.682Z,7.03
2019-04-21T18:42:53.251Z,5.90
2019-04-21T18:45:57.211Z,5.40
2019-04-21T18:48:27.146Z,12.67
2019-04-21T18:51:02.685Z,5.85
2019-04-21T18:53:44.952Z,4.07
2019-04-21T18:56:06.506Z,7.50
2019-04-21T18:58:33.663Z,7.43
2019-04-21T19:01:10.506Z,5.97
2019-04-21T19:03:41.054Z,4.13
2019-04-21T19:06:11.681Z,4.73
2019-04-21T19:08:59.354Z,10.17
2019-04-21T19:11:24.049Z,10.43
2019-04-21T19:14:20.992Z,8.53
2019-04-21T19:16:42.870Z,6.00
2019-04-21T19:19:37.963Z,9.20
2019-04-21T19:21:40.389Z,6.60
2019-04-21T19:24:29.435Z,9.53
2019-04-21T19:26:52.449Z,5.40
2019-04-21T19:29:19.762Z,11.43
2019-04-21T19:31:49.741Z,5.13
2019-04-21T19:34:07.710Z,7.53
2019-04-21T19:36:32.540Z,7.60
2019-04-21T19:39:08.318Z,4.17
2019-04-21T19:41:48.623Z,4.40
2019-04-21T19:44:24.814Z,11.13
2019-04-21T19:46:55.755Z,8.90
2019-04-21T19:49:30.464Z,7.23
2019-04-21T19:51:50.408Z,10.90
2019-04-21T19:54:20.205Z,4.70
2019-04-21T19:56:40.917Z,7.67
2019-04-21T19:59:14.038Z,5.00
2019-04-21T20:01:41.606Z,5.80
2019-04-21T20:04:12.366Z,4.57
2019-04-21T20:06:57.005Z,5.40
2019-04-21T20:09:32.430Z,4.13
2019-04-21T20:11:58.142Z,5.30
2019-04-21T20:14:46.668Z,5.07
2019-04-21T20:17:02.007Z,8.93
2019-04-21T20:19:19.678Z,11.73
2019-04-21T20:21:49.227Z,4.20
2019-04-21T20:24:26.196Z,5.60
2019-04-21T20:27:00.034Z,8.03
2019-04-21T20:29:38.967Z,6.43
2019-04-21T20:32:17.823Z,9.47
2019-04-21T20:34:47.763Z,13.50
2019-04-21T20:37:19.612Z,7.13
2019-04-21T20:39:28.315Z,8.20
2019-04-21T20:42:12.072Z,4.57
2019-04-21T20:44:45.149Z,6.00
2019-04-21T20:47:13.385Z,5.03
2019-04-21T20:49:41.051Z,7.87
2019-04-21T20:52:17.192Z,8.03
2019-04-21T20:54:48.247Z,4.93
2019-04-21T20:57:22.878Z,3.87
2019-04-21T20:59:43.829Z,3.67
2019-04-21T21:02:19.990Z,6.60
2019-04-21T21:04:45.625Z,5.80
2019-04-21T21:07:40.220Z,11.50
2019-04-21T21:10:00.425Z,4.40
2019-04-21T21:12:41.742Z,6.40
2019-04-21T21:14:54.302Z,5.90
2019-04-21T21:17:42.381Z,5.03
2019-04-21T21:20:00.835Z,8.30
2019-04-21T21:22:29.649Z,6.03
2019-04-21T21:25:03.870Z,6.00
2019-04-21T21:27:32.914Z,3.90
2019-04-21T21:30:05.558Z,5.70
2019-04-21T21:32:37.421Z,5.53
2019-04-21T21:35:09.530Z,3.73
2019-04-21T21:37:43.403Z,3.67
2019-04-21T21:40:12.694Z,5.17
2019-04-21T21:42:29.543Z,5.07
2019-04-21T21:45:07.751Z,7.13
2019-04-21T21:47:47.470Z,5.40
2019-04-21T21:50:08.874Z,4.30
2019-04-21T21:52:42.481Z,5.90
2019-04-21T21:55:01.603Z,5.77
2019-04-21T21:57:39.871Z,12.70
2019-04-21T22:00:08.580Z,8.53
2019-04-21T22:02:44.402Z,5.60
2019-04-21T22:05:17.914Z,6.57
2019-04-21T22:07:42.503Z,4.90
2019-04-21T22:10:12.491Z,5.77
2019-04-21T22:12:52.352Z,8.90
2019-04-21T22:15:18.579Z,4.93
2019-04-21T22:18:04.471Z,10.60
2019-04-21T22:20:33.344Z,7.80
2019-04-21T22:22:56.169Z,3.63
2019-04-21T22:25:24.373Z,4.90
2019-04-21T22:27:50.702Z,7.50
2019-04-21T22:30:29.928Z,7.20
2019-04-21T22:32:59.626Z,6.20
2019-04-21T22:35:31.638Z,9.90
2019-04-21T22:38:08.406Z,5.20
2019-04-21T22:40:41.573Z,4.43
2019-04-21T22:43:09.544Z,4.60
2019-04-21T22:45:27.298Z,5.93
2019-04-21T22:48:04.025Z,8.13
2019-04-21T22:50:30.574Z,5.60
2019-04-21T22:53:04.913Z,7.47
2019-04-21T22:55:34.686Z,7.03
2019-04-21T22:58:03.883Z,6.25
2019-04-21T23:00:41.010Z,6.50
2019-04-21T23:03:10.750Z,4.63
2019-04-21T23:05:38.317Z,6.80
2019-04-21T23:08:09.116Z,6.07
2019-04-21T23:10:41.452Z,6.08
2019-04-21T23:13:13.145Z,10.47
2019-04-21T23:15:46.161Z,6.00
2019-04-21T23:18:30.708Z,7.93
2019-04-21T23:20:58.807Z,6.33
2019-04-21T23:23:37.336Z,6.93
2019-04-21T23:26:02.743Z,5.43
2019-04-21T23:28:43.265Z,3.97
2019-04-21T23:31:08.021Z,8.80
2019-04-21T23:33:22.023Z,4.80
2019-04-21T23:35:59.078Z,7.60
2019-04-21T23:38:31.819Z,5.17
2019-04-21T23:40:58.224Z,11.65
2019-04-21T23:43:27.516Z,13.30
2019-04-21T23:45:55.515Z,12.47
2019-04-21T23:48:36.436Z,7.33
2019-04-21T23:51:12.195Z,6.03
2019-04-21T23:53:27.114Z,7.50
2019-04-21T23:55:56.997Z,10.90
2019-04-21T23:58:30.893Z,7.80
